KGAO

Details ICAO KGAO
Name SOUTH LAFOURCHE
Region United States
Timezone America/Chicago (UTC-6.0)
Plans Departing 3
Arriving 6
Stats Elevation 1 ft / 0 m (AMSL)
Location 29.444822° -90.261117°
Runways 1
Magnetic Variation 0.684° W
Sunrise 2017-12-14 12:49:04 UTC / 2017-12-14 06:49:04 Local
Sunset 2017-12-14 23:05:25 UTC / 2017-12-14 17:05:25 Local
Advertisement - Login to hide

Runways

ID Width Length Bearing (true) Bearing (mag) Surface Threshold Offset Overrun Length
18 75 ft / 23 m 3,814 ft / 1,162 m 180.58° 181.26° Asphalt 0 ft / 0 m 0 ft / 0 m
36 75 ft / 23 m 3,814 ft / 1,162 m 0.58° 1.26° Asphalt 0 ft / 0 m 0 ft / 0 m

Map

Weather


0- 5 10 15 20 25 30 35+ Temperature / ° C

Clouds and Precipitation
Forecast for 2017-12-14 18:00 UTC. Updated 15 minutes ago

Ground ~20,000 ft ~40,000 ft Winds

METAR

KGAO 141335Z AUTO 00000KT 7SM CLR 07/06 A3001 RMK AO2 T00690056

TAF

Not found

Frequencies

Recorded 118.17 MHz AWOS 3
Approach 123.85 MHz NEW ORLEANS APP/DEP
Unicom 123.00 MHz UNICOM CTAF
Warning: Do not use this data for real-world aviation or navigation. No guarantee of current accuracy is given.